createdAt,value
2023-03-27T00:00:28.813Z,77.05
2023-03-27T00:01:31.521Z,77.65
2023-03-27T00:02:33.809Z,78.07
2023-03-27T00:03:38.027Z,78.24
2023-03-27T00:04:41.862Z,78.63
2023-03-27T00:05:45.439Z,78.92
2023-03-27T00:06:48.542Z,79.28
2023-03-27T00:07:51.711Z,79.58
2023-03-27T00:08:54.061Z,79.97
2023-03-27T00:09:57.009Z,80.18
2023-03-27T00:11:02.260Z,80.47
2023-03-27T00:12:05.498Z,80.61
2023-03-27T00:13:10.587Z,80.73
2023-03-27T00:14:13.520Z,80.93
2023-03-27T00:15:16.637Z,81.00
2023-03-27T00:16:22.217Z,81.04
2023-03-27T00:17:24.518Z,80.99
2023-03-27T00:18:30.475Z,81.08
2023-03-27T00:19:33.679Z,80.83
2023-03-27T00:20:36.854Z,80.65
2023-03-27T00:21:39.837Z,80.43
2023-03-27T00:22:42.825Z,80.13
2023-03-27T00:23:46.232Z,80.18
2023-03-27T00:24:48.550Z,80.07
2023-03-27T00:25:51.693Z,80.26
2023-03-27T00:26:54.910Z,80.33
2023-03-27T00:27:58.223Z,80.52
2023-03-27T00:29:02.265Z,80.54
2023-03-27T00:30:06.105Z,80.74
2023-03-27T00:31:14.075Z,80.89
2023-03-27T00:32:17.304Z,80.78
2023-03-27T00:33:19.546Z,80.97
2023-03-27T00:34:21.704Z,81.06
2023-03-27T00:35:25.967Z,81.15
2023-03-27T00:36:29.019Z,80.99
2023-03-27T00:37:31.712Z,81.07
2023-03-27T00:38:34.306Z,81.21
2023-03-27T00:39:36.889Z,81.10
2023-03-27T00:40:40.757Z,81.25
2023-03-27T00:41:43.976Z,81.31
2023-03-27T00:42:48.684Z,81.50
2023-03-27T00:43:54.101Z,81.52
2023-03-27T00:44:56.914Z,81.62
2023-03-27T00:46:05.254Z,81.61
2023-03-27T00:47:11.498Z,81.55
2023-03-27T00:48:15.285Z,81.39
2023-03-27T00:49:17.875Z,81.59
2023-03-27T00:50:29.965Z,81.55
2023-03-27T00:51:35.200Z,81.57
2023-03-27T00:52:41.813Z,81.53
2023-03-27T00:53:47.097Z,81.53
2023-03-27T00:54:49.652Z,81.57
2023-03-27T00:55:55.078Z,81.57
2023-03-27T00:57:01.126Z,81.56
2023-03-27T00:58:07.033Z,81.27
2023-03-27T00:59:15.938Z,81.29
2023-03-27T01:00:19.444Z,81.40
2023-03-27T01:01:26.619Z,81.53
2023-03-27T01:02:29.232Z,81.68
2023-03-27T01:03:32.649Z,81.91
2023-03-27T01:04:36.941Z,81.84
2023-03-27T01:05:39.517Z,81.74
2023-03-27T01:06:43.857Z,81.68
2023-03-27T01:08:00.801Z,81.83
2023-03-27T01:08:52.737Z,82.05
2023-03-27T01:09:55.895Z,82.06
2023-03-27T01:11:08.555Z,82.21
2023-03-27T01:12:20.886Z,82.09
2023-03-27T01:13:30.502Z,82.20
2023-03-27T01:14:36.408Z,82.22
2023-03-27T01:15:54.454Z,82.32
2023-03-27T01:17:20.556Z,82.40
2023-03-27T01:18:45.706Z,82.17
2023-03-27T01:21:19.801Z,82.19
2023-03-27T01:22:43.415Z,82.42
2023-03-27T01:24:01.503Z,82.50
2023-03-27T01:25:32.186Z,82.57
2023-03-27T01:27:10.038Z,82.52
2023-03-27T01:28:32.646Z,82.65
2023-03-27T01:30:10.148Z,82.70
2023-03-27T01:31:19.097Z,82.82
2023-03-27T01:32:41.731Z,82.95
2023-03-27T01:34:04.505Z,83.11
2023-03-27T01:35:17.037Z,82.81
2023-03-27T01:36:52.309Z,82.81
2023-03-27T01:38:09.647Z,82.83
2023-03-27T01:39:18.745Z,82.94
2023-03-27T01:40:38.582Z,82.90
2023-03-27T01:41:50.428Z,82.74
2023-03-27T01:43:08.543Z,82.58
2023-03-27T01:44:20.514Z,82.66
2023-03-27T01:45:43.295Z,82.71
2023-03-27T01:46:49.259Z,82.68
2023-03-27T01:47:57.955Z,82.76
2023-03-27T01:49:06.646Z,82.96
2023-03-27T01:50:20.392Z,83.01
2023-03-27T01:51:32.796Z,82.86
2023-03-27T01:52:38.796Z,82.76
2023-03-27T01:53:48.841Z,82.96
2023-03-27T01:54:57.836Z,83.11
2023-03-27T01:56:07.565Z,83.18
2023-03-27T01:57:28.416Z,83.18
2023-03-27T01:58:46.363Z,83.15
2023-03-27T02:00:17.410Z,83.04
2023-03-27T02:01:19.703Z,82.93
2023-03-27T02:02:31.902Z,82.73
2023-03-27T02:03:37.707Z,83.01
2023-03-27T02:04:47.389Z,83.04
2023-03-27T02:05:57.747Z,82.84
2023-03-27T02:07:06.480Z,83.18
2023-03-27T02:09:31.199Z,83.33
2023-03-27T02:10:37.540Z,83.16
2023-03-27T02:11:48.534Z,83.08
2023-03-27T02:12:55.366Z,83.11
2023-03-27T02:14:05.355Z,83.20
2023-03-27T02:15:23.897Z,83.23
2023-03-27T02:16:21.849Z,82.47
2023-03-27T02:17:28.170Z,82.26
2023-03-27T02:18:35.298Z,82.21
2023-03-27T02:19:41.414Z,82.18
2023-03-27T02:20:44.828Z,82.28
2023-03-27T02:21:47.611Z,81.80
2023-03-27T02:22:50.881Z,81.91
2023-03-27T02:23:54.787Z,81.66
2023-03-27T02:24:56.975Z,81.70
2023-03-27T02:26:01.178Z,81.65
2023-03-27T02:27:08.508Z,81.33
2023-03-27T02:28:14.214Z,81.45
2023-03-27T02:29:47.019Z,81.48
2023-03-27T02:31:05.405Z,81.62
2023-03-27T02:32:20.937Z,81.95
2023-03-27T02:33:54.988Z,81.88
2023-03-27T02:35:19.668Z,81.71
2023-03-27T02:36:28.986Z,82.30
2023-03-27T02:37:47.422Z,82.26
2023-03-27T02:38:58.127Z,82.42
2023-03-27T02:40:10.684Z,82.42
2023-03-27T02:41:28.763Z,82.61
2023-03-27T02:42:45.523Z,82.75
2023-03-27T02:44:10.271Z,83.01
2023-03-27T02:46:38.433Z,83.16
2023-03-27T02:47:44.989Z,83.27
2023-03-27T02:48:50.960Z,83.60
2023-03-27T02:49:56.979Z,83.71
2023-03-27T02:51:06.090Z,83.84
2023-03-27T02:53:27.991Z,83.43
2023-03-27T02:54:42.511Z,83.31
2023-03-27T02:55:49.439Z,83.18
2023-03-27T02:56:55.600Z,83.02
2023-03-27T02:58:03.639Z,83.06
2023-03-27T02:59:18.557Z,83.38
2023-03-27T03:00:24.074Z,83.90
2023-03-27T03:01:30.877Z,84.40
2023-03-27T03:02:37.505Z,84.82
2023-03-27T03:03:48.131Z,84.85
2023-03-27T03:06:15.222Z,85.10
2023-03-27T03:07:18.054Z,85.21
2023-03-27T03:08:20.993Z,85.25
2023-03-27T03:09:24.859Z,85.27
2023-03-27T03:10:27.755Z,85.32
2023-03-27T03:11:31.215Z,85.12
2023-03-27T03:12:34.810Z,85.03
2023-03-27T03:13:37.864Z,84.74
2023-03-27T03:14:43.835Z,84.52
2023-03-27T03:15:47.207Z,84.38
2023-03-27T03:16:51.162Z,84.58
2023-03-27T03:17:53.794Z,84.31
2023-03-27T03:18:56.541Z,84.19
2023-03-27T03:19:59.151Z,83.63
2023-03-27T03:21:01.664Z,83.16
2023-03-27T03:22:05.384Z,82.76
2023-03-27T03:23:08.511Z,82.53
2023-03-27T03:24:11.734Z,82.40
2023-03-27T03:25:14.012Z,82.72
2023-03-27T03:26:17.783Z,82.91
2023-03-27T03:27:22.050Z,83.39
2023-03-27T03:28:38.229Z,83.77
2023-03-27T03:29:42.205Z,83.92
2023-03-27T03:30:49.850Z,83.67
2023-03-27T03:31:53.440Z,83.52
2023-03-27T03:32:56.730Z,83.65
2023-03-27T03:34:01.879Z,85.02
2023-03-27T03:35:04.833Z,85.65
2023-03-27T03:36:10.120Z,85.71
2023-03-27T03:37:14.694Z,85.47
2023-03-27T03:38:27.432Z,85.24
2023-03-27T03:39:30.400Z,84.91
2023-03-27T03:40:34.158Z,84.67
2023-03-27T03:41:37.354Z,84.71
2023-03-27T03:42:49.169Z,84.88
2023-03-27T03:43:51.854Z,84.57
2023-03-27T03:44:54.184Z,84.51
2023-03-27T03:45:58.666Z,84.81
2023-03-27T03:47:01.139Z,85.01
2023-03-27T03:48:03.557Z,85.03
2023-03-27T03:49:06.650Z,84.62
2023-03-27T03:50:11.199Z,84.45
2023-03-27T03:51:13.521Z,84.44
2023-03-27T03:52:16.736Z,84.22
2023-03-27T03:53:21.025Z,84.63
2023-03-27T03:54:23.674Z,85.08
2023-03-27T03:55:26.286Z,85.18
2023-03-27T03:56:30.431Z,85.19
2023-03-27T03:57:32.994Z,84.81
2023-03-27T03:58:37.867Z,84.51
2023-03-27T03:59:40.459Z,84.17
2023-03-27T04:01:01.997Z,83.99
2023-03-27T04:02:06.316Z,83.74
2023-03-27T04:03:10.349Z,83.65
2023-03-27T04:04:13.841Z,83.49
2023-03-27T04:05:27.608Z,83.28
2023-03-27T04:06:34.233Z,83.44
2023-03-27T04:07:39.115Z,83.16
2023-03-27T04:09:01.801Z,83.11
2023-03-27T04:10:08.199Z,83.38
2023-03-27T04:11:10.611Z,84.03
2023-03-27T04:12:21.370Z,84.12
2023-03-27T04:13:26.586Z,84.10
2023-03-27T04:14:31.332Z,84.09
2023-03-27T04:15:34.885Z,84.06
2023-03-27T04:16:45.274Z,83.99
2023-03-27T04:17:57.104Z,83.63
2023-03-27T04:19:00.590Z,83.66
2023-03-27T04:20:05.459Z,83.60
2023-03-27T04:21:12.055Z,83.30
2023-03-27T04:22:16.733Z,83.09
2023-03-27T04:23:20.948Z,82.90
2023-03-27T04:24:23.911Z,82.79
2023-03-27T04:25:28.315Z,82.63
2023-03-27T04:26:31.853Z,82.41
2023-03-27T04:27:45.103Z,82.27
2023-03-27T04:28:53.595Z,81.87
2023-03-27T04:30:02.623Z,81.64
2023-03-27T04:31:24.641Z,81.36
2023-03-27T04:32:28.923Z,81.71
2023-03-27T04:33:45.849Z,81.79
2023-03-27T04:34:56.092Z,82.66
2023-03-27T04:36:07.210Z,82.76
2023-03-27T04:37:08.135Z,82.71
2023-03-27T04:38:21.100Z,82.33
2023-03-27T04:39:29.687Z,82.18
2023-03-27T04:40:32.719Z,81.92
2023-03-27T04:41:35.073Z,81.54
2023-03-27T04:42:41.463Z,81.25
2023-03-27T04:43:45.840Z,80.62
2023-03-27T04:44:48.053Z,80.28
2023-03-27T04:45:51.104Z,80.16
2023-03-27T04:46:54.030Z,80.15
2023-03-27T04:47:58.119Z,80.11
2023-03-27T04:49:00.569Z,79.89
2023-03-27T04:50:21.228Z,79.88
2023-03-27T04:51:26.020Z,79.96
2023-03-27T04:52:29.081Z,80.19
2023-03-27T04:53:34.033Z,80.08
2023-03-27T04:54:36.262Z,79.89
2023-03-27T04:55:38.722Z,79.79
2023-03-27T04:56:44.778Z,79.59
2023-03-27T04:57:47.816Z,79.71
2023-03-27T04:58:50.773Z,79.58
2023-03-27T04:59:53.424Z,79.98
2023-03-27T05:01:16.689Z,80.14
2023-03-27T05:02:27.899Z,80.11
2023-03-27T05:03:34.114Z,80.24
2023-03-27T05:04:45.574Z,79.75
2023-03-27T05:05:53.205Z,79.75
2023-03-27T05:06:57.524Z,79.96
2023-03-27T05:07:59.969Z,80.13
2023-03-27T05:09:03.369Z,80.14
2023-03-27T05:10:08.747Z,80.16
2023-03-27T05:11:13.577Z,80.33
2023-03-27T05:12:17.847Z,80.13
2023-03-27T05:13:24.962Z,80.35
2023-03-27T05:14:27.548Z,80.32
2023-03-27T05:15:33.183Z,80.20
2023-03-27T05:16:36.752Z,79.74
2023-03-27T05:17:43.563Z,79.49
2023-03-27T05:18:46.374Z,79.54
2023-03-27T05:19:49.181Z,79.44
2023-03-27T05:20:52.755Z,79.32
2023-03-27T05:21:55.127Z,79.07
2023-03-27T05:22:57.446Z,79.13
2023-03-27T05:24:04.293Z,78.95
2023-03-27T05:25:08.440Z,78.92
2023-03-27T05:26:10.969Z,79.09
2023-03-27T05:27:31.237Z,79.07
2023-03-27T05:28:35.400Z,79.06
2023-03-27T05:29:47.134Z,79.02
2023-03-27T05:30:43.518Z,79.40
2023-03-27T05:31:53.877Z,79.68
2023-03-27T05:33:01.481Z,79.54
2023-03-27T05:34:05.548Z,79.10
2023-03-27T05:35:10.500Z,78.61
2023-03-27T05:36:14.915Z,78.35
2023-03-27T05:37:19.192Z,78.30
2023-03-27T05:38:35.493Z,78.16
2023-03-27T05:39:54.619Z,78.07
2023-03-27T05:41:01.757Z,78.40
2023-03-27T05:42:05.531Z,78.55
2023-03-27T05:43:08.825Z,78.44
2023-03-27T05:44:12.956Z,78.42
2023-03-27T05:45:18.126Z,78.38
2023-03-27T05:46:24.680Z,78.15
2023-03-27T05:47:29.121Z,78.03
2023-03-27T05:48:31.640Z,77.74
2023-03-27T05:49:37.050Z,77.43
2023-03-27T05:50:44.742Z,77.23
2023-03-27T05:51:53.107Z,77.27
2023-03-27T05:54:08.776Z,76.80
2023-03-27T05:55:16.149Z,76.49
2023-03-27T05:56:20.048Z,76.41
2023-03-27T05:57:24.628Z,76.70
2023-03-27T05:58:29.552Z,77.16
2023-03-27T05:59:34.776Z,75.74
2023-03-27T06:00:43.955Z,75.90
2023-03-27T06:01:51.261Z,75.51
2023-03-27T06:02:58.187Z,80.15
2023-03-27T06:04:03.867Z,76.16
2023-03-27T06:05:24.765Z,75.80
2023-03-27T06:06:28.413Z,75.14
2023-03-27T06:07:32.596Z,81.03
2023-03-27T06:08:37.786Z,76.36
2023-03-27T06:09:42.326Z,77.51
2023-03-27T06:11:03.310Z,75.57
2023-03-27T06:12:09.578Z,75.77
2023-03-27T06:13:14.035Z,73.92
2023-03-27T06:14:27.408Z,79.87
2023-03-27T06:15:40.790Z,76.87
2023-03-27T06:16:46.048Z,73.00
2023-03-27T06:18:08.533Z,74.01
2023-03-27T06:19:12.519Z,73.18
2023-03-27T06:20:19.252Z,73.15
2023-03-27T06:21:23.481Z,73.38
2023-03-27T06:22:27.841Z,73.55
2023-03-27T06:23:31.343Z,72.67
2023-03-27T06:24:33.957Z,71.98
2023-03-27T06:25:38.738Z,72.72
2023-03-27T06:26:42.258Z,73.22
2023-03-27T06:27:48.716Z,73.03
2023-03-27T06:28:51.978Z,72.32
2023-03-27T06:29:54.505Z,72.09
2023-03-27T06:30:57.116Z,74.01
2023-03-27T06:32:02.131Z,72.78
2023-03-27T06:33:08.252Z,72.25
2023-03-27T06:34:12.640Z,72.17
2023-03-27T06:35:31.285Z,71.52
2023-03-27T06:36:35.867Z,71.93
2023-03-27T06:37:41.239Z,71.51
2023-03-27T06:38:44.301Z,71.25
2023-03-27T06:39:48.828Z,71.16
2023-03-27T06:40:51.781Z,71.18
2023-03-27T06:41:55.707Z,72.39
2023-03-27T06:43:09.101Z,71.42
2023-03-27T06:44:13.268Z,70.51
2023-03-27T06:45:21.975Z,71.96
2023-03-27T06:46:45.710Z,70.54
2023-03-27T06:48:15.308Z,70.76
2023-03-27T06:49:04.474Z,70.38
2023-03-27T06:50:09.894Z,70.12
2023-03-27T06:51:12.535Z,69.63
2023-03-27T06:52:15.083Z,69.87
2023-03-27T06:54:24.374Z,69.28
2023-03-27T06:55:31.234Z,68.88
2023-03-27T06:56:34.090Z,68.95
2023-03-27T06:57:49.901Z,68.75
2023-03-27T06:58:54.581Z,68.46
2023-03-27T07:00:01.606Z,68.06
2023-03-27T07:01:05.695Z,67.97
2023-03-27T07:02:21.734Z,67.78
2023-03-27T07:03:41.594Z,67.30
2023-03-27T07:05:04.183Z,67.22
2023-03-27T07:06:01.693Z,67.14
2023-03-27T07:07:06.626Z,66.99
2023-03-27T07:08:23.477Z,66.16
2023-03-27T07:09:19.903Z,65.84
2023-03-27T07:10:25.648Z,66.23
2023-03-27T07:11:31.837Z,67.28
2023-03-27T07:12:37.375Z,66.83
2023-03-27T07:13:40.678Z,67.68
2023-03-27T07:14:44.884Z,66.68
2023-03-27T07:15:47.455Z,66.46
2023-03-27T07:16:50.286Z,69.22
2023-03-27T07:17:59.289Z,67.09
2023-03-27T07:19:02.630Z,66.34
2023-03-27T07:20:09.823Z,65.91
2023-03-27T07:21:14.072Z,67.14
2023-03-27T07:22:17.133Z,65.54
2023-03-27T07:23:21.414Z,65.46
2023-03-27T07:24:25.756Z,66.44
2023-03-27T07:25:35.752Z,68.29
2023-03-27T07:26:38.553Z,67.72
2023-03-27T07:27:53.453Z,66.01
2023-03-27T07:29:00.138Z,65.83
2023-03-27T07:30:02.206Z,66.58
2023-03-27T07:31:25.857Z,65.80
2023-03-27T07:32:29.791Z,66.02
2023-03-27T07:33:24.728Z,66.52
2023-03-27T07:34:28.596Z,65.99
2023-03-27T07:36:57.080Z,68.80
2023-03-27T07:37:59.854Z,70.56
2023-03-27T07:39:04.461Z,68.04
2023-03-27T07:40:10.129Z,65.31
2023-03-27T07:41:13.116Z,67.38
2023-03-27T07:42:20.305Z,67.12
2023-03-27T07:43:24.662Z,65.44
2023-03-27T07:44:27.547Z,64.54
2023-03-27T07:45:32.601Z,63.97
2023-03-27T07:46:37.072Z,63.84
2023-03-27T07:47:42.823Z,63.70
2023-03-27T07:48:45.226Z,63.37
2023-03-27T07:49:49.605Z,62.90
2023-03-27T07:51:10.760Z,62.57
2023-03-27T07:52:04.710Z,62.16
2023-03-27T07:53:08.994Z,62.20
2023-03-27T07:54:15.216Z,62.65
2023-03-27T07:55:21.860Z,63.11
2023-03-27T07:56:26.481Z,63.03
2023-03-27T07:57:57.231Z,62.93
2023-03-27T07:58:47.481Z,64.86
2023-03-27T07:59:53.247Z,62.49
2023-03-27T08:01:08.218Z,62.45
2023-03-27T08:02:11.157Z,62.01
2023-03-27T08:03:14.252Z,62.56
2023-03-27T08:04:21.771Z,62.40
2023-03-27T08:05:34.234Z,65.48
2023-03-27T08:06:38.535Z,61.85
2023-03-27T08:07:45.316Z,61.64
2023-03-27T08:08:50.293Z,68.47
2023-03-27T08:09:53.362Z,61.08
2023-03-27T08:10:58.125Z,61.17
2023-03-27T08:12:03.800Z,60.54
2023-03-27T08:13:06.294Z,61.30
2023-03-27T08:14:08.647Z,60.83
2023-03-27T08:15:11.280Z,60.49
2023-03-27T08:16:17.913Z,61.91
2023-03-27T08:17:22.139Z,60.56
2023-03-27T08:18:25.476Z,59.84
2023-03-27T08:19:28.642Z,59.82
2023-03-27T08:20:33.851Z,59.51
2023-03-27T08:21:36.508Z,59.78
2023-03-27T08:22:39.701Z,59.75
2023-03-27T08:23:47.086Z,57.59
2023-03-27T08:24:54.114Z,57.96
2023-03-27T08:26:02.107Z,60.25
2023-03-27T08:27:06.583Z,59.31
2023-03-27T08:28:10.920Z,58.55
2023-03-27T08:29:16.937Z,57.83
2023-03-27T08:30:24.191Z,60.50
2023-03-27T08:31:29.912Z,58.19
2023-03-27T08:32:35.375Z,65.81
2023-03-27T08:33:41.433Z,60.14
2023-03-27T08:34:46.170Z,58.14
2023-03-27T08:35:50.970Z,57.28
2023-03-27T08:36:55.157Z,56.26
2023-03-27T08:37:58.004Z,56.78
2023-03-27T08:39:11.348Z,56.63
2023-03-27T08:40:26.419Z,56.05
2023-03-27T08:41:41.861Z,56.44
2023-03-27T08:42:49.978Z,59.16
2023-03-27T08:43:56.552Z,58.25
2023-03-27T08:45:02.608Z,57.70
2023-03-27T08:46:23.448Z,55.92
2023-03-27T08:47:37.160Z,54.24
2023-03-27T08:48:47.761Z,59.50
2023-03-27T08:49:54.725Z,56.56
2023-03-27T08:51:05.858Z,53.85
2023-03-27T08:52:15.291Z,54.25
2023-03-27T08:53:24.713Z,55.68
2023-03-27T08:54:33.564Z,54.32
2023-03-27T08:55:44.069Z,60.03
2023-03-27T08:57:07.659Z,53.65
2023-03-27T08:58:21.450Z,52.51
2023-03-27T08:59:28.975Z,59.71
2023-03-27T09:00:35.402Z,51.54
2023-03-27T09:02:00.299Z,52.56
2023-03-27T09:03:18.592Z,52.42
2023-03-27T09:04:43.627Z,52.05
2023-03-27T09:05:59.926Z,52.00
2023-03-27T09:07:27.821Z,55.33
2023-03-27T09:08:49.052Z,52.91
2023-03-27T09:10:07.454Z,54.23
2023-03-27T09:11:25.173Z,58.80
2023-03-27T09:12:37.404Z,55.76
2023-03-27T09:13:43.909Z,52.79
2023-03-27T09:14:50.544Z,57.36
2023-03-27T09:15:57.843Z,58.05
2023-03-27T09:17:04.459Z,53.71
2023-03-27T09:18:18.046Z,57.39
2023-03-27T09:19:37.623Z,57.33
2023-03-27T09:20:44.847Z,51.42
2023-03-27T09:21:53.981Z,54.92
2023-03-27T09:23:13.928Z,51.84
2023-03-27T09:25:47.645Z,51.21
2023-03-27T09:27:18.172Z,50.90
2023-03-27T09:28:25.931Z,51.97
2023-03-27T09:29:34.109Z,52.86
2023-03-27T09:30:42.657Z,55.41
2023-03-27T09:31:49.674Z,53.23
2023-03-27T09:33:03.446Z,52.95
2023-03-27T09:34:11.269Z,57.43
2023-03-27T09:35:16.438Z,51.83
2023-03-27T09:36:19.394Z,51.48
2023-03-27T09:37:21.733Z,54.61
2023-03-27T09:38:27.890Z,57.04
2023-03-27T09:39:33.505Z,55.85
2023-03-27T09:40:44.059Z,52.63
2023-03-27T09:41:53.737Z,54.13
2023-03-27T09:43:00.126Z,54.14
2023-03-27T09:44:12.380Z,53.79
2023-03-27T09:45:18.125Z,53.02
2023-03-27T09:46:27.470Z,53.80
2023-03-27T09:47:37.747Z,52.29
2023-03-27T09:48:45.635Z,52.33
2023-03-27T09:49:56.493Z,51.85
2023-03-27T09:51:01.883Z,51.77
2023-03-27T09:52:13.773Z,51.78
2023-03-27T09:53:25.322Z,55.91
2023-03-27T09:54:36.626Z,51.97
2023-03-27T09:55:56.809Z,50.91
2023-03-27T09:57:05.972Z,55.43
2023-03-27T09:58:24.225Z,51.96
2023-03-27T09:59:32.496Z,55.55
2023-03-27T10:00:37.318Z,53.62
2023-03-27T10:01:45.250Z,51.96
2023-03-27T10:02:53.109Z,51.46
2023-03-27T10:03:59.048Z,51.97
2023-03-27T10:05:18.219Z,49.10
2023-03-27T10:06:32.237Z,51.59
2023-03-27T10:07:40.531Z,50.04
2023-03-27T10:09:07.511Z,50.89
2023-03-27T10:10:20.853Z,49.44
2023-03-27T10:11:33.845Z,53.08
2023-03-27T10:12:39.609Z,49.58
2023-03-27T10:13:48.389Z,52.29
2023-03-27T10:14:53.095Z,51.20
2023-03-27T10:16:05.818Z,51.70
2023-03-27T10:17:39.196Z,50.96
2023-03-27T10:18:50.111Z,49.96
2023-03-27T10:21:30.017Z,51.82
2023-03-27T10:22:38.324Z,49.18
2023-03-27T10:23:44.033Z,50.83
2023-03-27T10:24:48.912Z,53.04
2023-03-27T10:26:02.563Z,49.55
2023-03-27T10:27:12.696Z,49.09
2023-03-27T10:28:23.089Z,49.66
2023-03-27T10:29:37.551Z,49.97
2023-03-27T10:30:42.913Z,49.75
2023-03-27T10:32:05.674Z,50.57
2023-03-27T10:33:12.576Z,52.36
2023-03-27T10:34:36.049Z,51.90
2023-03-27T10:35:52.997Z,50.60
2023-03-27T10:37:01.015Z,50.24
2023-03-27T10:38:14.376Z,50.70
2023-03-27T10:39:19.035Z,48.20
2023-03-27T10:40:38.000Z,48.26
2023-03-27T10:41:42.636Z,49.34
2023-03-27T10:42:47.879Z,48.56
2023-03-27T10:43:52.451Z,48.09
2023-03-27T10:44:58.094Z,48.53
2023-03-27T10:46:06.171Z,47.23
2023-03-27T10:47:21.870Z,47.19
2023-03-27T10:48:32.203Z,49.82
2023-03-27T10:49:43.989Z,51.75
2023-03-27T10:50:53.589Z,49.40
2023-03-27T10:52:08.416Z,49.48
2023-03-27T10:53:16.433Z,51.59
2023-03-27T10:54:36.854Z,51.28
2023-03-27T10:55:45.456Z,52.16
2023-03-27T10:57:17.364Z,49.60
2023-03-27T10:58:33.274Z,49.55
2023-03-27T10:59:47.377Z,49.99
2023-03-27T11:02:17.704Z,50.10
2023-03-27T11:03:37.477Z,49.32
2023-03-27T11:04:50.837Z,51.27
2023-03-27T11:05:55.580Z,50.58
2023-03-27T11:07:04.791Z,51.93
2023-03-27T11:08:12.161Z,53.19
2023-03-27T11:09:41.171Z,49.73
2023-03-27T11:10:47.465Z,49.58
2023-03-27T11:12:01.795Z,48.88
2023-03-27T11:13:13.234Z,49.62
2023-03-27T11:14:27.741Z,48.03
2023-03-27T11:15:38.747Z,47.53
2023-03-27T11:16:49.778Z,48.93
2023-03-27T11:18:26.404Z,48.07
2023-03-27T11:21:18.811Z,47.57
2023-03-27T11:22:29.961Z,49.93
2023-03-27T11:23:39.779Z,47.43
2023-03-27T11:25:05.771Z,47.13
2023-03-27T11:26:12.135Z,49.65
2023-03-27T11:27:20.456Z,48.16
2023-03-27T11:28:51.998Z,49.50
2023-03-27T11:30:04.493Z,47.82
2023-03-27T11:31:32.769Z,48.12
2023-03-27T11:32:48.683Z,46.33
2023-03-27T11:33:55.139Z,47.14
2023-03-27T11:36:42.987Z,48.51
2023-03-27T11:39:17.666Z,49.05
2023-03-27T11:40:26.421Z,46.91
2023-03-27T11:41:33.892Z,45.66
2023-03-27T11:42:41.869Z,45.45
2023-03-27T11:43:47.399Z,45.95
2023-03-27T11:45:02.232Z,48.37
2023-03-27T11:46:23.611Z,45.63
2023-03-27T11:47:48.638Z,45.71
2023-03-27T11:48:56.184Z,49.43
2023-03-27T11:50:02.758Z,45.21
2023-03-27T11:51:16.958Z,49.15
2023-03-27T11:52:42.542Z,48.34
2023-03-27T11:54:14.655Z,46.15
2023-03-27T11:55:34.316Z,48.95
2023-03-27T11:56:46.700Z,46.07
2023-03-27T11:58:04.596Z,47.93
2023-03-27T11:59:24.353Z,46.11
2023-03-27T12:00:42.000Z,46.67
2023-03-27T12:01:53.585Z,46.26
2023-03-27T12:03:16.233Z,47.39
2023-03-27T12:04:42.250Z,48.24
2023-03-27T12:06:05.077Z,48.90
2023-03-27T12:07:34.134Z,47.20
2023-03-27T12:08:34.868Z,43.73
2023-03-27T12:09:40.985Z,43.92
2023-03-27T12:11:06.549Z,42.45
2023-03-27T12:12:17.172Z,42.54
2023-03-27T12:13:46.205Z,46.45
2023-03-27T12:15:17.579Z,44.29
2023-03-27T12:16:33.889Z,43.13
2023-03-27T12:17:46.792Z,46.83
2023-03-27T12:19:03.769Z,45.20
2023-03-27T12:20:21.092Z,47.28
2023-03-27T12:21:34.772Z,47.23
2023-03-27T12:22:44.271Z,45.26
2023-03-27T12:25:56.193Z,46.58
2023-03-27T12:27:38.019Z,48.87
2023-03-27T12:29:23.202Z,46.38
2023-03-27T12:30:33.752Z,44.59
2023-03-27T12:31:46.267Z,46.65
2023-03-27T12:33:12.534Z,50.55
2023-03-27T12:34:27.750Z,50.11
2023-03-27T12:35:34.142Z,48.05
2023-03-27T12:36:40.835Z,48.85
2023-03-27T12:37:58.890Z,47.19
2023-03-27T12:39:24.441Z,45.69
2023-03-27T12:40:36.369Z,49.25
2023-03-27T12:41:45.032Z,48.96
2023-03-27T12:42:52.367Z,49.52
2023-03-27T12:43:58.513Z,46.19
2023-03-27T12:45:21.955Z,51.00
2023-03-27T12:46:32.301Z,48.05
2023-03-27T12:47:34.955Z,44.89
2023-03-27T12:48:58.513Z,48.17
2023-03-27T12:50:05.821Z,45.45
2023-03-27T12:51:13.230Z,45.48
2023-03-27T12:52:17.465Z,44.17
2023-03-27T12:53:37.633Z,45.90
2023-03-27T12:55:07.865Z,48.99
2023-03-27T12:56:35.304Z,46.15
2023-03-27T12:57:43.973Z,44.16
2023-03-27T12:58:52.706Z,45.47
2023-03-27T13:00:00.324Z,46.40
2023-03-27T13:01:08.664Z,47.24
2023-03-27T13:02:19.917Z,41.84
2023-03-27T13:03:35.646Z,40.90
2023-03-27T13:05:16.484Z,45.10
2023-03-27T13:06:45.008Z,40.63
2023-03-27T13:08:10.484Z,43.68
2023-03-27T13:09:36.465Z,44.00
2023-03-27T13:10:47.470Z,42.09
2023-03-27T13:11:58.228Z,46.24
2023-03-27T13:13:11.973Z,45.52
2023-03-27T13:14:32.158Z,45.94
2023-03-27T13:15:41.987Z,45.52
2023-03-27T13:18:26.486Z,43.69
2023-03-27T13:19:41.488Z,44.48
2023-03-27T13:22:27.351Z,41.03
2023-03-27T13:23:51.596Z,43.61
2023-03-27T13:25:08.949Z,45.45
2023-03-27T13:26:23.127Z,46.29
2023-03-27T13:27:47.186Z,45.64
2023-03-27T13:28:53.854Z,44.24
2023-03-27T13:29:57.139Z,44.83
2023-03-27T13:31:04.979Z,45.11
2023-03-27T13:32:37.253Z,44.43
2023-03-27T13:33:51.701Z,45.71
2023-03-27T13:35:22.600Z,43.36
2023-03-27T13:36:26.316Z,42.39
2023-03-27T13:37:36.905Z,43.17
2023-03-27T13:38:47.909Z,42.77
2023-03-27T13:40:02.079Z,43.48
2023-03-27T13:41:39.689Z,42.43
2023-03-27T13:42:47.115Z,43.85
2023-03-27T13:43:50.866Z,40.68
2023-03-27T13:45:30.110Z,41.08
2023-03-27T13:47:13.323Z,42.59
2023-03-27T13:48:38.067Z,41.98
2023-03-27T13:49:48.043Z,43.99
2023-03-27T13:50:57.247Z,43.29
2023-03-27T13:52:12.839Z,40.17
2023-03-27T13:53:42.736Z,38.84
2023-03-27T13:55:28.332Z,41.05
2023-03-27T13:57:06.925Z,39.75
2023-03-27T13:58:32.947Z,40.80
2023-03-27T14:00:00.978Z,40.11
2023-03-27T14:01:17.011Z,39.75
2023-03-27T14:02:45.261Z,39.07
2023-03-27T14:04:00.971Z,41.30
2023-03-27T14:05:12.028Z,40.81
2023-03-27T14:06:38.640Z,40.89
2023-03-27T14:08:12.827Z,40.79
2023-03-27T14:09:38.369Z,41.64
2023-03-27T14:11:14.183Z,40.55
2023-03-27T14:12:40.976Z,41.55
2023-03-27T14:13:49.297Z,44.98
2023-03-27T14:14:56.240Z,43.03
2023-03-27T14:16:27.567Z,45.52
2023-03-27T14:17:38.490Z,43.37
2023-03-27T14:19:03.920Z,44.03
2023-03-27T14:21:52.765Z,42.20
2023-03-27T14:23:10.993Z,41.06
2023-03-27T14:24:34.118Z,40.37
2023-03-27T14:25:43.219Z,44.58
2023-03-27T14:26:55.492Z,42.88
2023-03-27T14:28:00.163Z,44.07
2023-03-27T14:29:02.913Z,44.32
2023-03-27T14:30:15.878Z,43.37
2023-03-27T14:31:22.859Z,45.64
2023-03-27T14:32:27.623Z,42.57
2023-03-27T14:33:31.528Z,40.35
2023-03-27T14:34:47.357Z,40.31
2023-03-27T14:35:46.473Z,40.23
2023-03-27T14:36:51.818Z,41.17
2023-03-27T14:38:02.896Z,39.78
2023-03-27T14:39:16.329Z,41.51
2023-03-27T14:40:25.316Z,40.50
2023-03-27T14:41:29.211Z,39.92
2023-03-27T14:42:35.250Z,42.67
2023-03-27T14:43:42.637Z,45.72
2023-03-27T14:44:46.290Z,41.69
2023-03-27T14:45:52.983Z,42.05
2023-03-27T14:47:03.439Z,46.53
2023-03-27T14:48:10.037Z,41.80
2023-03-27T14:49:27.041Z,44.77
2023-03-27T14:50:33.862Z,42.76
2023-03-27T14:51:41.300Z,42.49
2023-03-27T14:52:49.498Z,45.75
2023-03-27T14:53:58.928Z,40.40
2023-03-27T14:55:05.713Z,41.68
2023-03-27T14:56:22.563Z,41.43
2023-03-27T14:57:30.797Z,40.49
2023-03-27T14:58:36.753Z,40.35
2023-03-27T14:59:43.701Z,41.71
2023-03-27T15:00:59.710Z,39.52
2023-03-27T15:02:07.275Z,41.50
2023-03-27T15:03:16.178Z,40.03
2023-03-27T15:04:19.144Z,42.00
2023-03-27T15:05:22.461Z,40.06
2023-03-27T15:06:27.577Z,42.59
2023-03-27T15:07:36.776Z,48.67
2023-03-27T15:10:17.115Z,42.64
2023-03-27T15:11:28.111Z,45.32
2023-03-27T15:12:34.354Z,43.75
2023-03-27T15:13:37.517Z,46.36
2023-03-27T15:14:43.834Z,46.31
2023-03-27T15:15:50.798Z,43.89
2023-03-27T15:17:05.429Z,44.13
2023-03-27T15:18:30.877Z,45.44
2023-03-27T15:19:43.832Z,45.67
2023-03-27T15:20:47.921Z,43.79
2023-03-27T15:21:56.342Z,45.78
2023-03-27T15:23:25.926Z,43.68
2023-03-27T15:24:45.169Z,52.27
2023-03-27T15:26:00.905Z,44.92
2023-03-27T15:27:05.403Z,44.64
2023-03-27T15:28:18.284Z,45.74